sensor_id;sensor_type;location;lat;lon;timestamp;pressure;altitude;pressure_sealevel;temperature;humidity
55759;BME280;41678;52.126;20.664;2023-05-22T00:02:05;100809.25;;;12.94;61.09
55759;BME280;41678;52.126;20.664;2023-05-22T00:07:25;100797.88;;;12.87;61.23
55759;BME280;41678;52.126;20.664;2023-05-22T00:12:46;100804.13;;;12.81;61.23
55759;BME280;41678;52.126;20.664;2023-05-22T00:18:06;100795.38;;;12.76;61.44
55759;BME280;41678;52.126;20.664;2023-05-22T00:23:26;100792.81;;;12.70;61.53
55759;BME280;41678;52.126;20.664;2023-05-22T00:28:46;100784.13;;;12.61;61.44
55759;BME280;41678;52.126;20.664;2023-05-22T00:34:07;100797.34;;;12.58;61.87
55759;BME280;41678;52.126;20.664;2023-05-22T00:39:27;100794.78;;;12.51;61.98
55759;BME280;41678;52.126;20.664;2023-05-22T00:44:46;100784.31;;;12.43;61.88
55759;BME280;41678;52.126;20.664;2023-05-22T00:50:09;100790.56;;;12.36;62.13
55759;BME280;41678;52.126;20.664;2023-05-22T00:55:29;100789.72;;;12.32;61.93
55759;BME280;41678;52.126;20.664;2023-05-22T01:00:49;100790.69;;;12.23;62.27
55759;BME280;41678;52.126;20.664;2023-05-22T01:06:18;100786.34;;;12.19;62.52
55759;BME280;41678;52.126;20.664;2023-05-22T01:12:10;100788.16;;;12.12;62.02
55759;BME280;41678;52.126;20.664;2023-05-22T01:29:29;100783.00;;;11.97;62.63
55759;BME280;41678;52.126;20.664;2023-05-22T01:34:55;100790.09;;;11.92;62.26
55759;BME280;41678;52.126;20.664;2023-05-22T01:40:18;100783.09;;;11.83;62.35
55759;BME280;41678;52.126;20.664;2023-05-22T01:45:38;100789.31;;;11.79;62.97
55759;BME280;41678;52.126;20.664;2023-05-22T01:51:02;100783.19;;;11.75;62.63
55759;BME280;41678;52.126;20.664;2023-05-22T01:56:29;100789.38;;;11.71;62.62
55759;BME280;41678;52.126;20.664;2023-05-22T02:01:54;100788.53;;;11.64;62.97
55759;BME280;41678;52.126;20.664;2023-05-22T02:07:15;100800.03;;;11.57;62.76
55759;BME280;41678;52.126;20.664;2023-05-22T02:12:38;100792.16;;;11.51;63.37
55759;BME280;41678;52.126;20.664;2023-05-22T02:18:00;100792.22;;;11.46;62.82
55759;BME280;41678;52.126;20.664;2023-05-22T02:23:21;100785.22;;;11.39;62.99
55759;BME280;41678;52.126;20.664;2023-05-22T02:28:41;100786.09;;;11.36;63.36
55759;BME280;41678;52.126;20.664;2023-05-22T02:34:02;100787.03;;;11.27;63.28
55759;BME280;41678;52.126;20.664;2023-05-22T02:39:24;100780.94;;;11.24;63.29
55759;BME280;41678;52.126;20.664;2023-05-22T02:44:43;100784.47;;;11.19;63.05
55759;BME280;41678;52.126;20.664;2023-05-22T02:50:04;100779.25;;;11.15;63.61
55759;BME280;41678;52.126;20.664;2023-05-22T02:55:25;100776.63;;;11.09;63.71
55759;BME280;41678;52.126;20.664;2023-05-22T03:00:45;100772.22;;;11.06;63.42
55759;BME280;41678;52.126;20.664;2023-05-22T03:06:05;100773.16;;;11.03;63.54
55759;BME280;41678;52.126;20.664;2023-05-22T03:11:27;100751.22;;;10.97;63.82
55759;BME280;41678;52.126;20.664;2023-05-22T03:16:47;100748.63;;;10.94;63.91
55759;BME280;41678;52.126;20.664;2023-05-22T03:22:06;100743.38;;;10.89;63.89
55759;BME280;41678;52.126;20.664;2023-05-22T03:27:27;100745.09;;;10.91;63.87
55759;BME280;41678;52.126;20.664;2023-05-22T03:32:47;100750.34;;;10.96;64.04
55759;BME280;41678;52.126;20.664;2023-05-22T03:38:07;100751.19;;;10.98;63.85
55759;BME280;41678;52.126;20.664;2023-05-22T03:43:27;100753.84;;;11.00;63.60
55759;BME280;41678;52.126;20.664;2023-05-22T03:48:47;100749.44;;;10.99;64.14
55759;BME280;41678;52.126;20.664;2023-05-22T03:54:07;100753.81;;;11.04;63.85
55759;BME280;41678;52.126;20.664;2023-05-22T03:59:27;100759.06;;;11.09;63.97
55759;BME280;41678;52.126;20.664;2023-05-22T04:04:48;100759.03;;;11.12;64.18
55759;BME280;41678;52.126;20.664;2023-05-22T04:10:08;100759.88;;;11.17;64.04
55759;BME280;41678;52.126;20.664;2023-05-22T04:15:27;100752.84;;;11.23;64.00
55759;BME280;41678;52.126;20.664;2023-05-22T04:20:47;100758.94;;;11.26;64.19
55759;BME280;41678;52.126;20.664;2023-05-22T04:26:11;100761.50;;;11.37;64.66
55759;BME280;41678;52.126;20.664;2023-05-22T04:31:30;100742.16;;;11.41;64.66
55759;BME280;41678;52.126;20.664;2023-05-22T04:36:50;100742.06;;;11.51;65.33
55759;BME280;41678;52.126;20.664;2023-05-22T04:42:11;100740.22;;;11.62;65.45
55759;BME280;41678;52.126;20.664;2023-05-22T04:47:33;100726.91;;;11.76;66.06
55759;BME280;41678;52.126;20.664;2023-05-22T04:52:58;100739.06;;;11.89;65.96
55759;BME280;41678;52.126;20.664;2023-05-22T04:58:18;100736.34;;;12.00;65.77
55759;BME280;41678;52.126;20.664;2023-05-22T05:03:38;100736.22;;;12.16;66.20
55759;BME280;41678;52.126;20.664;2023-05-22T05:08:58;100746.56;;;12.33;66.21
55759;BME280;41678;52.126;20.664;2023-05-22T05:14:18;100748.22;;;12.45;65.84
55759;BME280;41678;52.126;20.664;2023-05-22T05:19:37;100741.84;;;12.60;65.73
55759;BME280;41678;52.126;20.664;2023-05-22T05:24:58;100744.25;;;12.80;65.69
55759;BME280;41678;52.126;20.664;2023-05-22T05:30:18;100751.97;;;12.94;65.61
55759;BME280;41678;52.126;20.664;2023-05-22T05:35:58;100761.47;;;13.09;65.72
55759;BME280;41678;52.126;20.664;2023-05-22T05:41:18;100760.41;;;13.21;65.78
55759;BME280;41678;52.126;20.664;2023-05-22T05:46:40;100762.84;;;13.35;66.08
55759;BME280;41678;52.126;20.664;2023-05-22T05:52:00;100751.28;;;13.42;65.74
55759;BME280;41678;52.126;20.664;2023-05-22T05:57:21;100750.22;;;13.56;65.26
55759;BME280;41678;52.126;20.664;2023-05-22T06:02:41;100752.53;;;13.74;65.66
55759;BME280;41678;52.126;20.664;2023-05-22T06:08:20;100749.47;;;13.98;65.90
55759;BME280;41678;52.126;20.664;2023-05-22T06:13:40;100747.34;;;14.19;66.15
55759;BME280;41678;52.126;20.664;2023-05-22T06:19:00;100745.09;;;14.42;66.21
55759;BME280;41678;52.126;20.664;2023-05-22T06:24:19;100737.59;;;14.65;66.23
55759;BME280;41678;52.126;20.664;2023-05-22T06:29:39;100740.66;;;14.89;66.20
55759;BME280;41678;52.126;20.664;2023-05-22T06:35:01;100742.88;;;15.07;66.07
55759;BME280;41678;52.126;20.664;2023-05-22T06:40:21;100731.88;;;15.24;65.99
55759;BME280;41678;52.126;20.664;2023-05-22T06:45:47;100734.63;;;15.56;65.79
55759;BME280;41678;52.126;20.664;2023-05-22T06:51:24;100740.28;;;15.78;65.87
55759;BME280;41678;52.126;20.664;2023-05-22T06:56:48;100730.72;;;16.06;65.44
55759;BME280;41678;52.126;20.664;2023-05-22T07:02:09;100727.34;;;16.32;65.11
55759;BME280;41678;52.126;20.664;2023-05-22T07:07:49;100723.22;;;16.53;65.26
55759;BME280;41678;52.126;20.664;2023-05-22T07:13:10;100730.44;;;16.78;64.75
55759;BME280;41678;52.126;20.664;2023-05-22T07:18:31;100728.94;;;16.98;64.83
55759;BME280;41678;52.126;20.664;2023-05-22T07:23:51;100738.03;;;17.21;63.97
55759;BME280;41678;52.126;20.664;2023-05-22T07:29:12;100728.31;;;17.47;63.57
55759;BME280;41678;52.126;20.664;2023-05-22T07:34:34;100725.75;;;17.70;62.79
55759;BME280;41678;52.126;20.664;2023-05-22T07:39:57;100728.53;;;17.93;62.61
55759;BME280;41678;52.126;20.664;2023-05-22T07:45:17;100727.00;;;18.12;63.09
55759;BME280;41678;52.126;20.664;2023-05-22T07:50:38;100725.22;;;18.37;61.70
55759;BME280;41678;52.126;20.664;2023-05-22T07:55:58;100715.56;;;18.58;61.42
55759;BME280;41678;52.126;20.664;2023-05-22T08:01:18;100728.41;;;18.93;60.13
55759;BME280;41678;52.126;20.664;2023-05-22T08:06:38;100718.22;;;19.04;61.05
55759;BME280;41678;52.126;20.664;2023-05-22T08:11:58;100724.00;;;19.16;60.01
55759;BME280;41678;52.126;20.664;2023-05-22T08:17:18;100717.06;;;19.34;60.10
55759;BME280;41678;52.126;20.664;2023-05-22T08:22:38;100719.13;;;19.48;58.62
55759;BME280;41678;52.126;20.664;2023-05-22T08:27:57;100715.03;;;19.61;58.33
55759;BME280;41678;52.126;20.664;2023-05-22T08:33:17;100710.88;;;19.75;57.20
55759;BME280;41678;52.126;20.664;2023-05-22T08:38:38;100705.88;;;19.88;56.24
55759;BME280;41678;52.126;20.664;2023-05-22T08:43:57;100708.09;;;19.99;56.85
55759;BME280;41678;52.126;20.664;2023-05-22T08:49:20;100711.31;;;20.07;56.99
55759;BME280;41678;52.126;20.664;2023-05-22T08:54:41;100711.56;;;20.21;55.49
55759;BME280;41678;52.126;20.664;2023-05-22T09:00:02;100704.28;;;20.25;55.40
55759;BME280;41678;52.126;20.664;2023-05-22T09:05:23;100702.84;;;20.37;56.41
55759;BME280;41678;52.126;20.664;2023-05-22T09:10:45;100703.03;;;20.32;54.31
55759;BME280;41678;52.126;20.664;2023-05-22T09:16:10;100699.06;;;20.41;54.63
55759;BME280;41678;52.126;20.664;2023-05-22T09:21:29;100676.25;;;20.34;53.72
55759;BME280;41678;52.126;20.664;2023-05-22T09:26:49;100682.22;;;20.39;53.81
55759;BME280;41678;52.126;20.664;2023-05-22T09:32:12;100678.03;;;20.33;53.97
55759;BME280;41678;52.126;20.664;2023-05-22T09:37:33;100682.28;;;20.37;54.73
55759;BME280;41678;52.126;20.664;2023-05-22T09:42:57;100673.91;;;20.45;54.30
55759;BME280;41678;52.126;20.664;2023-05-22T09:48:16;100670.22;;;20.48;54.06
55759;BME280;41678;52.126;20.664;2023-05-22T09:53:38;100674.38;;;20.55;54.36
55759;BME280;41678;52.126;20.664;2023-05-22T09:58:59;100674.06;;;20.61;53.03
55759;BME280;41678;52.126;20.664;2023-05-22T10:04:20;100678.41;;;20.64;53.12
55759;BME280;41678;52.126;20.664;2023-05-22T10:09:41;100667.41;;;20.70;53.73
55759;BME280;41678;52.126;20.664;2023-05-22T10:15:00;100667.81;;;20.80;54.09
55759;BME280;41678;52.126;20.664;2023-05-22T10:20:21;100661.69;;;20.78;52.65
55759;BME280;41678;52.126;20.664;2023-05-22T10:25:42;100650.63;;;20.86;51.65
55759;BME280;41678;52.126;20.664;2023-05-22T10:31:34;100656.16;;;20.83;50.84
55759;BME280;41678;52.126;20.664;2023-05-22T10:42:47;100655.25;;;20.82;52.01
55759;BME280;41678;52.126;20.664;2023-05-22T10:48:09;100643.03;;;20.76;52.49
55759;BME280;41678;52.126;20.664;2023-05-22T10:53:33;100641.97;;;20.80;52.83
55759;BME280;41678;52.126;20.664;2023-05-22T10:58:57;100626.84;;;20.79;52.90
55759;BME280;41678;52.126;20.664;2023-05-22T11:04:23;100633.19;;;20.77;52.33
55759;BME280;41678;52.126;20.664;2023-05-22T11:09:46;100639.66;;;20.73;52.66
55759;BME280;41678;52.126;20.664;2023-05-22T11:15:09;100630.75;;;20.72;52.91
55759;BME280;41678;52.126;20.664;2023-05-22T11:20:35;100623.97;;;20.65;52.29
55759;BME280;41678;52.126;20.664;2023-05-22T11:26:16;100620.25;;;20.67;52.18
55759;BME280;41678;52.126;20.664;2023-05-22T11:31:36;100615.94;;;20.65;52.25
55759;BME280;41678;52.126;20.664;2023-05-22T11:36:57;100602.78;;;20.60;52.31
55759;BME280;41678;52.126;20.664;2023-05-22T11:42:19;100598.28;;;20.61;52.62
55759;BME280;41678;52.126;20.664;2023-05-22T11:47:40;100600.03;;;20.62;52.11
55759;BME280;41678;52.126;20.664;2023-05-22T11:53:00;100581.38;;;20.60;50.72
55759;BME280;41678;52.126;20.664;2023-05-22T11:58:26;100585.41;;;20.69;51.02
55759;BME280;41678;52.126;20.664;2023-05-22T12:03:45;100591.78;;;20.66;50.14
55759;BME280;41678;52.126;20.664;2023-05-22T12:09:04;100580.91;;;20.70;51.41
55759;BME280;41678;52.126;20.664;2023-05-22T12:14:29;100576.38;;;20.72;52.07
55759;BME280;41678;52.126;20.664;2023-05-22T12:19:49;100573.84;;;20.69;51.25
55759;BME280;41678;52.126;20.664;2023-05-22T12:25:15;100565.59;;;20.73;51.69
55759;BME280;41678;52.126;20.664;2023-05-22T12:30:44;100554.59;;;20.79;51.46
55759;BME280;41678;52.126;20.664;2023-05-22T12:36:06;100558.13;;;20.80;51.59
55759;BME280;41678;52.126;20.664;2023-05-22T12:41:26;100556.25;;;20.82;51.92
55759;BME280;41678;52.126;20.664;2023-05-22T12:46:45;100552.34;;;20.89;51.63
55759;BME280;41678;52.126;20.664;2023-05-22T12:52:05;100546.06;;;20.90;51.44
55759;BME280;41678;52.126;20.664;2023-05-22T12:57:24;100538.03;;;20.90;50.63
55759;BME280;41678;52.126;20.664;2023-05-22T13:02:44;100549.13;;;21.00;50.34
55759;BME280;41678;52.126;20.664;2023-05-22T13:08:03;100531.56;;;20.94;50.26
55759;BME280;41678;52.126;20.664;2023-05-22T13:13:23;100542.88;;;21.00;50.34
55759;BME280;41678;52.126;20.664;2023-05-22T13:18:43;100533.13;;;20.99;49.13
55759;BME280;41678;52.126;20.664;2023-05-22T13:24:03;100530.63;;;20.95;49.22
55759;BME280;41678;52.126;20.664;2023-05-22T13:29:23;100529.75;;;20.95;49.53
55759;BME280;41678;52.126;20.664;2023-05-22T13:34:42;100519.28;;;20.90;50.26
55759;BME280;41678;52.126;20.664;2023-05-22T13:40:02;100519.13;;;20.93;50.42
55759;BME280;41678;52.126;20.664;2023-05-22T13:45:22;100511.16;;;20.92;49.39
55759;BME280;41678;52.126;20.664;2023-05-22T13:50:42;100509.97;;;20.98;49.99
55759;BME280;41678;52.126;20.664;2023-05-22T13:56:02;100508.97;;;21.00;50.43
55759;BME280;41678;52.126;20.664;2023-05-22T14:01:22;100512.59;;;20.99;48.80
55759;BME280;41678;52.126;20.664;2023-05-22T14:06:42;100512.66;;;20.98;49.73
55759;BME280;41678;52.126;20.664;2023-05-22T14:12:01;100504.56;;;20.99;48.01
55759;BME280;41678;52.126;20.664;2023-05-22T14:17:20;100494.97;;;20.95;49.59
55759;BME280;41678;52.126;20.664;2023-05-22T14:22:40;100486.94;;;20.95;49.19
55759;BME280;41678;52.126;20.664;2023-05-22T14:27:59;100484.41;;;20.92;47.89
55759;BME280;41678;52.126;20.664;2023-05-22T14:33:19;100480.47;;;20.99;48.49
55759;BME280;41678;52.126;20.664;2023-05-22T14:38:39;100475.97;;;21.00;47.32
55759;BME280;41678;52.126;20.664;2023-05-22T14:43:59;100484.16;;;20.97;47.46
55759;BME280;41678;52.126;20.664;2023-05-22T14:49:18;100471.56;;;20.99;48.61
55759;BME280;41678;52.126;20.664;2023-05-22T14:54:38;100465.97;;;21.03;48.69
55759;BME280;41678;52.126;20.664;2023-05-22T14:59:57;100471.66;;;20.97;48.29
55759;BME280;41678;52.126;20.664;2023-05-22T15:05:17;100468.88;;;20.99;49.08
55759;BME280;41678;52.126;20.664;2023-05-22T15:10:36;100469.06;;;20.95;48.89
55759;BME280;41678;52.126;20.664;2023-05-22T15:15:56;100468.50;;;20.89;48.47
55759;BME280;41678;52.126;20.664;2023-05-22T15:21:16;100460.66;;;20.86;48.38
55759;BME280;41678;52.126;20.664;2023-05-22T15:26:36;100452.47;;;20.89;48.56
55759;BME280;41678;52.126;20.664;2023-05-22T15:31:55;100447.88;;;20.91;48.59
55759;BME280;41678;52.126;20.664;2023-05-22T15:37:15;100454.53;;;20.84;48.78
55759;BME280;41678;52.126;20.664;2023-05-22T15:42:36;100447.44;;;20.83;49.01
55759;BME280;41678;52.126;20.664;2023-05-22T15:47:56;100438.91;;;20.74;48.09
55759;BME280;41678;52.126;20.664;2023-05-22T15:53:17;100430.81;;;20.76;48.22
55759;BME280;41678;52.126;20.664;2023-05-22T15:58:36;100427.25;;;20.75;48.63
55759;BME280;41678;52.126;20.664;2023-05-22T16:03:56;100411.69;;;20.66;48.95
55759;BME280;41678;52.126;20.664;2023-05-22T16:09:17;100426.03;;;20.65;49.09
55759;BME280;41678;52.126;20.664;2023-05-22T16:14:37;100429.31;;;20.70;49.26
55759;BME280;41678;52.126;20.664;2023-05-22T16:19:57;100420.66;;;20.65;49.18
55759;BME280;41678;52.126;20.664;2023-05-22T16:25:16;100403.13;;;20.59;49.26
55759;BME280;41678;52.126;20.664;2023-05-22T16:30:36;100411.44;;;20.53;48.74
55759;BME280;41678;52.126;20.664;2023-05-22T16:35:58;100419.47;;;20.53;48.37
55759;BME280;41678;52.126;20.664;2023-05-22T16:41:17;100413.28;;;20.52;49.17
55759;BME280;41678;52.126;20.664;2023-05-22T16:46:37;100412.72;;;20.46;49.49
55759;BME280;41678;52.126;20.664;2023-05-22T16:51:56;100420.03;;;20.42;48.97
55759;BME280;41678;52.126;20.664;2023-05-22T16:57:16;100417.97;;;20.30;48.46
55759;BME280;41678;52.126;20.664;2023-05-22T17:02:36;100430.72;;;20.24;48.87
55759;BME280;41678;52.126;20.664;2023-05-22T17:07:56;100425.53;;;20.21;49.22
55759;BME280;41678;52.126;20.664;2023-05-22T17:13:16;100430.88;;;20.21;50.55
55759;BME280;41678;52.126;20.664;2023-05-22T17:18:39;100425.03;;;20.13;50.46
55759;BME280;41678;52.126;20.664;2023-05-22T17:23:58;100432.34;;;20.09;50.98
55759;BME280;41678;52.126;20.664;2023-05-22T17:29:18;100435.69;;;19.95;49.99
55759;BME280;41678;52.126;20.664;2023-05-22T17:34:37;100426.28;;;19.87;50.72
55759;BME280;41678;52.126;20.664;2023-05-22T17:39:57;100429.16;;;19.82;50.54
55759;BME280;41678;52.126;20.664;2023-05-22T17:45:16;100420.50;;;19.77;51.08
55759;BME280;41678;52.126;20.664;2023-05-22T17:50:36;100423.59;;;19.67;51.30
55759;BME280;41678;52.126;20.664;2023-05-22T17:55:55;100423.75;;;19.64;51.76
55759;BME280;41678;52.126;20.664;2023-05-22T18:01:15;100419.72;;;19.56;51.65
55759;BME280;41678;52.126;20.664;2023-05-22T18:06:35;100411.06;;;19.50;52.36
55759;BME280;41678;52.126;20.664;2023-05-22T18:11:55;100406.16;;;19.41;52.87
55759;BME280;41678;52.126;20.664;2023-05-22T18:17:15;100415.31;;;19.35;52.88
55759;BME280;41678;52.126;20.664;2023-05-22T18:22:36;100411.31;;;19.25;53.45
55759;BME280;41678;52.126;20.664;2023-05-22T18:27:56;100405.69;;;19.12;53.80
55759;BME280;41678;52.126;20.664;2023-05-22T18:33:15;100408.91;;;19.00;53.80
55759;BME280;41678;52.126;20.664;2023-05-22T18:38:35;100413.03;;;18.86;53.78
55759;BME280;41678;52.126;20.664;2023-05-22T18:43:55;100405.78;;;18.69;54.34
55759;BME280;41678;52.126;20.664;2023-05-22T18:49:15;100408.19;;;18.54;54.26
55759;BME280;41678;52.126;20.664;2023-05-22T18:54:35;100412.28;;;18.41;54.32
55759;BME280;41678;52.126;20.664;2023-05-22T18:59:54;100405.88;;;18.24;54.54
55759;BME280;41678;52.126;20.664;2023-05-22T19:05:14;100417.97;;;18.11;54.21
55759;BME280;41678;52.126;20.664;2023-05-22T19:10:33;100416.75;;;17.96;54.77
55759;BME280;41678;52.126;20.664;2023-05-22T19:15:53;100420.16;;;17.77;54.64
55759;BME280;41678;52.126;20.664;2023-05-22T19:21:13;100429.50;;;17.65;54.90
55759;BME280;41678;52.126;20.664;2023-05-22T19:26:32;100421.19;;;17.51;54.91
55759;BME280;41678;52.126;20.664;2023-05-22T19:31:52;100422.69;;;17.34;54.96
55759;BME280;41678;52.126;20.664;2023-05-22T19:37:12;100417.88;;;17.20;55.33
55759;BME280;41678;52.126;20.664;2023-05-22T19:42:31;100417.47;;;17.07;55.54
55759;BME280;41678;52.126;20.664;2023-05-22T19:47:51;100415.38;;;16.90;55.48
55759;BME280;41678;52.126;20.664;2023-05-22T19:53:11;100418.38;;;16.81;55.59
55759;BME280;41678;52.126;20.664;2023-05-22T19:58:31;100414.41;;;16.67;55.61
55759;BME280;41678;52.126;20.664;2023-05-22T20:03:50;100412.25;;;16.53;55.61
55759;BME280;41678;52.126;20.664;2023-05-22T20:09:10;100414.31;;;16.43;55.77
55759;BME280;41678;52.126;20.664;2023-05-22T20:14:30;100411.22;;;16.31;56.16
55759;BME280;41678;52.126;20.664;2023-05-22T20:19:49;100408.03;;;16.19;55.89
55759;BME280;41678;52.126;20.664;2023-05-22T20:25:08;100403.13;;;16.07;56.32
55759;BME280;41678;52.126;20.664;2023-05-22T20:30:29;100402.56;;;15.97;56.45
55759;BME280;41678;52.126;20.664;2023-05-22T20:35:48;100395.84;;;15.85;56.46
55759;BME280;41678;52.126;20.664;2023-05-22T20:41:09;100402.34;;;15.75;56.41
55759;BME280;41678;52.126;20.664;2023-05-22T20:46:30;100406.25;;;15.63;56.66
55759;BME280;41678;52.126;20.664;2023-05-22T20:51:50;100397.72;;;15.53;56.75
55759;BME280;41678;52.126;20.664;2023-05-22T20:57:11;100403.28;;;15.43;56.72
55759;BME280;41678;52.126;20.664;2023-05-22T21:02:30;100398.34;;;15.31;57.00
55759;BME280;41678;52.126;20.664;2023-05-22T21:07:50;100402.97;;;15.24;56.97
55759;BME280;41678;52.126;20.664;2023-05-22T21:13:09;100394.47;;;15.13;56.89
55759;BME280;41678;52.126;20.664;2023-05-22T21:18:29;100387.59;;;15.06;57.11
55759;BME280;41678;52.126;20.664;2023-05-22T21:23:49;100397.50;;;14.99;57.51
55759;BME280;41678;52.126;20.664;2023-05-22T21:29:09;100396.84;;;14.91;57.45
55759;BME280;41678;52.126;20.664;2023-05-22T21:34:29;100392.78;;;14.77;57.77
55759;BME280;41678;52.126;20.664;2023-05-22T21:39:48;100393.88;;;14.68;57.50
55759;BME280;41678;52.126;20.664;2023-05-22T21:45:09;100394.09;;;14.61;57.66
55759;BME280;41678;52.126;20.664;2023-05-22T21:50:29;100389.00;;;14.53;57.88
55759;BME280;41678;52.126;20.664;2023-05-22T21:55:48;100381.28;;;14.43;57.98
55759;BME280;41678;52.126;20.664;2023-05-22T22:01:08;100391.22;;;14.35;58.13
55759;BME280;41678;52.126;20.664;2023-05-22T22:06:28;100390.56;;;14.25;58.08
55759;BME280;41678;52.126;20.664;2023-05-22T22:11:47;100393.53;;;14.13;58.69
55759;BME280;41678;52.126;20.664;2023-05-22T22:17:07;100396.22;;;14.10;58.34
55759;BME280;41678;52.126;20.664;2023-05-22T22:22:27;100391.19;;;14.00;58.79
55759;BME280;41678;52.126;20.664;2023-05-22T22:27:46;100386.09;;;13.91;58.91
55759;BME280;41678;52.126;20.664;2023-05-22T22:33:06;100381.91;;;13.82;58.75
55759;BME280;41678;52.126;20.664;2023-05-22T22:38:25;100383.78;;;13.77;58.36
55759;BME280;41678;52.126;20.664;2023-05-22T22:43:45;100387.53;;;13.68;58.94
55759;BME280;41678;52.126;20.664;2023-05-22T22:49:05;100379.69;;;13.62;58.74
55759;BME280;41678;52.126;20.664;2023-05-22T22:54:25;100376.38;;;13.54;59.07
55759;BME280;41678;52.126;20.664;2023-05-22T22:59:45;100363.28;;;13.48;58.95
55759;BME280;41678;52.126;20.664;2023-05-22T23:05:05;100365.16;;;13.41;59.20
55759;BME280;41678;52.126;20.664;2023-05-22T23:10:24;100356.47;;;13.36;59.20
55759;BME280;41678;52.126;20.664;2023-05-22T23:15:44;100356.53;;;13.32;59.20
55759;BME280;41678;52.126;20.664;2023-05-22T23:21:04;100348.84;;;13.22;59.41
55759;BME280;41678;52.126;20.664;2023-05-22T23:26:23;100347.09;;;13.21;59.29
55759;BME280;41678;52.126;20.664;2023-05-22T23:31:44;100338.44;;;13.12;59.59
55759;BME280;41678;52.126;20.664;2023-05-22T23:37:05;100340.34;;;13.06;59.53
55759;BME280;41678;52.126;20.664;2023-05-22T23:42:25;100331.69;;;12.99;59.49
55759;BME280;41678;52.126;20.664;2023-05-22T23:47:45;100327.38;;;12.95;59.59
55759;BME280;41678;52.126;20.664;2023-05-22T23:53:05;100317.81;;;12.87;59.58
55759;BME280;41678;52.126;20.664;2023-05-22T23:58:24;100321.41;;;12.83;59.65
